createdAt,value
2019-02-18T00:02:10.737Z,98.90
2019-02-18T00:04:39.145Z,99.00
2019-02-18T00:07:14.014Z,99.00
2019-02-18T00:09:37.758Z,99.10
2019-02-18T00:12:06.224Z,99.10
2019-02-18T00:14:34.699Z,99.10
2019-02-18T00:17:03.094Z,99.10
2019-02-18T00:19:31.485Z,98.90
2019-02-18T00:21:59.916Z,99.00
2019-02-18T00:24:28.320Z,98.90
2019-02-18T00:26:56.716Z,98.70
2019-02-18T00:29:25.131Z,98.70
2019-02-18T00:31:53.562Z,98.70
2019-02-18T00:34:21.988Z,98.60
2019-02-18T00:36:50.388Z,98.60
2019-02-18T00:39:18.802Z,98.60
2019-02-18T00:41:49.198Z,98.80
2019-02-18T00:44:17.276Z,98.80
2019-02-18T00:46:45.796Z,98.70
2019-02-18T00:49:14.194Z,98.50
2019-02-18T00:51:42.602Z,98.40
2019-02-18T00:54:11.004Z,98.30
2019-02-18T00:56:39.464Z,98.20
2019-02-18T00:59:07.890Z,98.20
2019-02-18T01:01:36.291Z,98.20
2019-02-18T01:04:04.843Z,98.40
2019-02-18T01:06:33.273Z,98.60
2019-02-18T01:09:01.681Z,98.60
2019-02-18T01:11:30.197Z,98.80
2019-02-18T01:13:58.597Z,98.60
2019-02-18T01:16:27.001Z,98.50
2019-02-18T01:18:55.463Z,98.30
2019-02-18T01:21:23.863Z,98.10
2019-02-18T01:23:52.316Z,98.10
2019-02-18T01:26:20.709Z,97.90
2019-02-18T01:28:49.179Z,97.90
2019-02-18T01:31:17.641Z,98.00
2019-02-18T01:33:46.052Z,98.20
2019-02-18T01:36:14.501Z,98.30
2019-02-18T01:38:42.909Z,98.30
2019-02-18T01:41:11.317Z,98.40
2019-02-18T01:43:39.730Z,98.60
2019-02-18T01:46:08.144Z,98.80
2019-02-18T01:48:36.653Z,98.80
2019-02-18T01:51:05.131Z,98.90
2019-02-18T01:53:33.601Z,98.70
2019-02-18T01:56:01.947Z,98.60
2019-02-18T01:58:30.412Z,98.10
2019-02-18T02:00:58.848Z,97.90
2019-02-18T02:03:27.258Z,98.00
2019-02-18T02:05:55.658Z,98.00
2019-02-18T02:08:24.108Z,98.00
2019-02-18T02:10:52.515Z,98.00
2019-02-18T02:13:28.481Z,98.10
2019-02-18T02:15:57.528Z,98.20
2019-02-18T02:18:25.941Z,98.40
2019-02-18T02:20:54.358Z,98.30
2019-02-18T02:23:22.829Z,98.30
2019-02-18T02:25:51.266Z,98.40
2019-02-18T02:28:19.665Z,98.30
2019-02-18T02:30:48.181Z,98.30
2019-02-18T02:33:16.580Z,98.70
2019-02-18T02:35:45.050Z,99.00
2019-02-18T02:38:13.481Z,98.90
2019-02-18T02:40:41.956Z,98.90
2019-02-18T02:43:11.293Z,98.60
2019-02-18T02:45:39.705Z,99.20
2019-02-18T02:48:08.106Z,99.50
2019-02-18T02:50:36.547Z,99.60
2019-02-18T02:53:04.941Z,99.50
2019-02-18T02:55:33.341Z,99.50
2019-02-18T02:58:01.736Z,99.30
2019-02-18T03:00:30.159Z,99.20
2019-02-18T03:02:58.581Z,99.40
2019-02-18T03:05:27.004Z,99.50
2019-02-18T03:07:55.486Z,99.60
2019-02-18T03:10:23.889Z,99.50
2019-02-18T03:12:52.293Z,99.80
2019-02-18T03:15:20.812Z,99.90
2019-02-18T03:17:49.241Z,99.90
2019-02-18T03:20:17.628Z,99.90
2019-02-18T03:22:46.039Z,99.90
2019-02-18T03:25:19.681Z,99.90
2019-02-18T03:27:50.858Z,99.90
2019-02-18T03:30:34.194Z,99.90
2019-02-18T03:33:03.109Z,99.80
2019-02-18T03:35:31.502Z,99.80
2019-02-18T03:37:59.909Z,99.80
2019-02-18T03:40:28.318Z,99.80
2019-02-18T03:42:56.733Z,99.60
2019-02-18T03:45:25.269Z,99.60
2019-02-18T03:47:53.678Z,99.30
2019-02-18T03:50:22.091Z,99.10
2019-02-18T03:52:50.633Z,98.90
2019-02-18T03:55:19.065Z,98.80
2019-02-18T03:57:47.561Z,98.90
2019-02-18T04:00:16.034Z,98.90
2019-02-18T04:02:44.448Z,99.00
2019-02-18T04:05:12.862Z,99.00
2019-02-18T04:07:41.381Z,99.00
2019-02-18T04:10:11.508Z,99.30
2019-02-18T04:12:39.913Z,99.40
2019-02-18T04:15:10.993Z,99.60
2019-02-18T04:17:38.708Z,99.70
2019-02-18T04:20:07.547Z,99.90
2019-02-18T04:22:35.979Z,99.90
2019-02-18T04:25:05.823Z,99.90
2019-02-18T04:27:34.228Z,99.90
2019-02-18T04:30:02.712Z,99.90
2019-02-18T04:32:31.134Z,99.90
2019-02-18T04:34:59.685Z,99.90
2019-02-18T04:37:28.089Z,99.90
2019-02-18T04:39:56.497Z,99.90
2019-02-18T04:42:24.913Z,99.90
2019-02-18T04:44:54.257Z,99.90
2019-02-18T04:47:22.692Z,99.90
2019-02-18T04:49:51.117Z,99.90
2019-02-18T04:52:19.512Z,99.90
2019-02-18T04:54:47.999Z,99.90
2019-02-18T04:57:16.417Z,99.90
2019-02-18T04:59:44.849Z,99.90
2019-02-18T05:02:13.257Z,99.90
2019-02-18T05:04:41.734Z,99.90
2019-02-18T05:07:10.140Z,99.90
2019-02-18T05:09:39.919Z,99.90
2019-02-18T05:12:08.709Z,99.90
2019-02-18T05:14:37.217Z,99.90
2019-02-18T05:17:05.630Z,99.90
2019-02-18T05:19:34.021Z,99.90
2019-02-18T05:22:02.428Z,99.90
2019-02-18T05:24:30.929Z,99.90
2019-02-18T05:26:59.338Z,99.90
2019-02-18T05:29:27.824Z,99.90
2019-02-18T05:31:56.224Z,99.90
2019-02-18T05:34:24.643Z,99.90
2019-02-18T05:36:53.341Z,99.90
2019-02-18T05:39:21.752Z,99.90
2019-02-18T05:41:50.158Z,99.90
2019-02-18T05:44:18.572Z,99.90
2019-02-18T05:46:47.026Z,99.90
2019-02-18T05:49:15.461Z,99.90
2019-02-18T05:51:43.943Z,99.90
2019-02-18T05:54:12.433Z,99.90
2019-02-18T05:56:40.850Z,99.90
2019-02-18T05:59:09.256Z,99.90
2019-02-18T06:01:37.900Z,99.90
2019-02-18T06:04:06.544Z,99.90
2019-02-18T06:06:34.965Z,99.90
2019-02-18T06:09:04.366Z,99.90
2019-02-18T06:11:32.772Z,99.90
2019-02-18T06:14:01.215Z,99.90
2019-02-18T06:16:29.718Z,99.90
2019-02-18T06:18:58.125Z,99.80
2019-02-18T06:21:26.536Z,99.60
2019-02-18T06:23:54.965Z,99.50
2019-02-18T06:26:23.386Z,99.60
2019-02-18T06:28:51.801Z,99.40
2019-02-18T06:31:20.285Z,99.40
2019-02-18T06:33:48.698Z,99.30
2019-02-18T06:36:17.109Z,99.30
2019-02-18T06:38:45.703Z,99.10
2019-02-18T06:41:14.106Z,99.20
2019-02-18T06:43:42.513Z,99.70
2019-02-18T06:46:15.673Z,99.90
2019-02-18T06:48:45.715Z,99.90
2019-02-18T06:51:14.158Z,99.90
2019-02-18T06:53:42.619Z,99.90
2019-02-18T06:56:11.024Z,99.90
2019-02-18T06:58:47.048Z,99.90
2019-02-18T07:01:26.150Z,99.80
2019-02-18T07:03:56.181Z,99.70
2019-02-18T07:06:41.545Z,99.50
2019-02-18T07:09:11.602Z,99.20
2019-02-18T07:11:41.650Z,99.10
2019-02-18T07:14:10.153Z,98.90
2019-02-18T07:16:38.579Z,98.90
2019-02-18T07:19:06.961Z,98.90
2019-02-18T07:21:35.372Z,99.00
2019-02-18T07:24:03.800Z,98.90
2019-02-18T07:26:32.233Z,98.90
2019-02-18T07:29:00.662Z,98.70
2019-02-18T07:31:29.036Z,98.70
2019-02-18T07:33:57.546Z,98.70
2019-02-18T07:36:25.942Z,98.60
2019-02-18T07:38:54.372Z,98.60
2019-02-18T07:41:22.776Z,98.50
2019-02-18T07:43:51.186Z,98.30
2019-02-18T07:46:19.593Z,98.20
2019-02-18T07:48:48.004Z,98.00
2019-02-18T07:51:16.435Z,97.80
2019-02-18T07:53:44.856Z,97.50
2019-02-18T07:56:13.264Z,97.30
2019-02-18T07:58:41.685Z,97.00
2019-02-18T08:01:10.144Z,95.70
2019-02-18T08:03:38.597Z,93.50
2019-02-18T08:06:06.976Z,91.40
2019-02-18T08:08:35.392Z,90.00
2019-02-18T08:11:03.779Z,88.50
2019-02-18T08:13:32.172Z,87.60
2019-02-18T08:16:00.613Z,86.00
2019-02-18T08:18:29.014Z,84.40
2019-02-18T08:20:57.548Z,83.60
2019-02-18T08:23:26.030Z,81.80
2019-02-18T08:25:54.428Z,81.60
2019-02-18T08:28:22.857Z,80.30
2019-02-18T08:30:51.331Z,80.30
2019-02-18T08:33:19.724Z,82.60
2019-02-18T08:35:48.138Z,84.00
2019-02-18T08:38:16.533Z,86.30
2019-02-18T08:40:45.037Z,88.50
2019-02-18T08:43:13.440Z,89.20
2019-02-18T08:45:41.941Z,89.90
2019-02-18T08:48:10.345Z,90.20
2019-02-18T08:50:38.784Z,91.40
2019-02-18T08:53:07.219Z,91.70
2019-02-18T08:55:35.621Z,92.30
2019-02-18T08:58:04.028Z,92.80
2019-02-18T09:00:32.424Z,92.90
2019-02-18T09:03:00.829Z,92.80
2019-02-18T09:05:29.412Z,92.80
2019-02-18T09:07:57.798Z,92.90
2019-02-18T09:10:33.133Z,92.70
2019-02-18T09:12:56.438Z,92.60
2019-02-18T09:15:24.837Z,92.30
2019-02-18T09:17:53.256Z,92.50
2019-02-18T09:20:21.794Z,91.90
2019-02-18T09:23:09.934Z,91.50
2019-02-18T09:25:39.972Z,90.80
2019-02-18T09:28:08.395Z,89.10
2019-02-18T09:30:38.440Z,86.40
2019-02-18T09:33:06.856Z,84.80
2019-02-18T09:35:35.261Z,81.30
2019-02-18T09:38:03.667Z,78.30
2019-02-18T09:40:32.096Z,77.00
2019-02-18T09:43:00.560Z,74.90
2019-02-18T09:45:28.967Z,73.10
2019-02-18T09:47:57.361Z,72.50
2019-02-18T09:50:25.765Z,69.20
2019-02-18T09:52:54.222Z,68.20
2019-02-18T09:55:22.609Z,69.70
2019-02-18T09:57:51.011Z,68.90
2019-02-18T10:00:19.413Z,64.90
2019-02-18T10:02:47.889Z,62.40
2019-02-18T10:05:16.394Z,61.30
2019-02-18T10:07:44.867Z,63.00
2019-02-18T10:10:13.364Z,62.50
2019-02-18T10:12:41.781Z,61.80
2019-02-18T10:15:11.144Z,60.40
2019-02-18T10:17:39.658Z,59.90
2019-02-18T10:20:10.734Z,59.40
2019-02-18T10:22:39.139Z,59.70
2019-02-18T10:25:10.308Z,58.80
2019-02-18T10:27:38.704Z,58.50
2019-02-18T10:30:08.884Z,56.90
2019-02-18T10:32:37.309Z,56.90
2019-02-18T10:35:10.757Z,56.30
2019-02-18T10:37:39.165Z,57.00
2019-02-18T10:40:09.420Z,56.60
2019-02-18T10:42:37.856Z,54.50
2019-02-18T10:45:11.613Z,53.60
2019-02-18T10:47:40.008Z,55.20
2019-02-18T10:50:12.905Z,55.60
2019-02-18T10:52:41.312Z,54.20
2019-02-18T10:55:10.899Z,53.60
2019-02-18T10:57:39.591Z,52.70
2019-02-18T11:00:15.472Z,52.70
2019-02-18T11:02:44.238Z,53.20
2019-02-18T11:05:12.639Z,54.50
2019-02-18T11:07:41.193Z,55.00
2019-02-18T11:10:16.632Z,54.70
2019-02-18T11:12:47.433Z,54.30
2019-02-18T11:15:15.331Z,54.80
2019-02-18T11:17:44.042Z,53.90
2019-02-18T11:20:13.082Z,53.00
2019-02-18T11:22:41.481Z,51.10
2019-02-18T11:25:14.707Z,49.80
2019-02-18T11:27:43.172Z,51.20
2019-02-18T11:30:17.540Z,52.20
2019-02-18T11:32:45.960Z,50.80
2019-02-18T11:35:14.354Z,52.10
2019-02-18T11:37:42.872Z,52.90
2019-02-18T11:40:18.283Z,50.90
2019-02-18T11:42:46.718Z,50.30
2019-02-18T11:45:16.276Z,50.60
2019-02-18T11:47:44.678Z,51.40
2019-02-18T11:50:14.482Z,50.40
2019-02-18T11:52:43.682Z,50.80
2019-02-18T11:55:13.020Z,52.80
2019-02-18T11:57:41.961Z,52.70
2019-02-18T12:00:13.164Z,51.60
2019-02-18T12:02:41.572Z,50.00
2019-02-18T12:05:10.963Z,50.20
2019-02-18T12:07:39.435Z,50.50
2019-02-18T12:10:11.161Z,49.00
2019-02-18T12:12:39.921Z,50.50
2019-02-18T12:15:13.448Z,51.10
2019-02-18T12:17:41.853Z,52.00
2019-02-18T12:20:12.709Z,53.50
2019-02-18T12:22:41.156Z,53.70
2019-02-18T12:25:09.947Z,55.60
2019-02-18T12:27:38.887Z,55.80
2019-02-18T12:30:15.346Z,58.70
2019-02-18T12:32:43.773Z,60.40
2019-02-18T12:35:12.312Z,62.90
2019-02-18T12:37:40.730Z,62.90
2019-02-18T12:40:10.877Z,63.80
2019-02-18T12:42:39.368Z,64.80
2019-02-18T12:45:12.875Z,65.20
2019-02-18T12:47:41.276Z,65.80
2019-02-18T12:50:10.815Z,66.20
2019-02-18T12:52:39.249Z,67.70
2019-02-18T12:55:10.001Z,68.30
2019-02-18T12:57:38.705Z,68.40
2019-02-18T13:00:14.013Z,68.50
2019-02-18T13:02:44.595Z,69.00
2019-02-18T13:05:13.000Z,69.30
2019-02-18T13:07:41.436Z,69.00
2019-02-18T13:10:10.564Z,69.60
2019-02-18T13:12:39.255Z,69.70
2019-02-18T13:15:13.296Z,70.10
2019-02-18T13:17:42.867Z,70.10
2019-02-18T13:20:11.497Z,70.00
2019-02-18T13:22:39.981Z,70.30
2019-02-18T13:25:09.496Z,70.70
2019-02-18T13:27:37.927Z,71.10
2019-02-18T13:30:12.586Z,71.40
2019-02-18T13:32:41.038Z,71.90
2019-02-18T13:35:09.445Z,71.70
2019-02-18T13:37:37.832Z,72.30
2019-02-18T13:40:06.698Z,72.80
2019-02-18T13:42:35.239Z,72.90
2019-02-18T13:45:05.110Z,73.50
2019-02-18T13:47:33.500Z,74.10
2019-02-18T13:50:01.964Z,74.80
2019-02-18T13:52:30.447Z,75.20
2019-02-18T13:54:58.865Z,75.60
2019-02-18T13:57:28.188Z,75.80
2019-02-18T14:00:18.725Z,76.20
2019-02-18T14:02:47.660Z,76.80
2019-02-18T14:05:16.329Z,77.10
2019-02-18T14:07:44.807Z,77.40
2019-02-18T14:10:13.294Z,78.00
2019-02-18T14:12:41.705Z,78.10
2019-02-18T14:15:12.233Z,78.40
2019-02-18T14:17:40.645Z,78.70
2019-02-18T14:20:11.740Z,79.00
2019-02-18T14:22:40.144Z,79.30
2019-02-18T14:25:09.857Z,79.80
2019-02-18T14:27:38.252Z,80.10
2019-02-18T14:30:09.917Z,80.30
2019-02-18T14:32:38.318Z,80.60
2019-02-18T14:35:07.660Z,81.10
2019-02-18T14:37:36.077Z,81.70
2019-02-18T14:40:05.131Z,81.90
2019-02-18T14:42:33.565Z,82.30
2019-02-18T14:45:01.968Z,81.80
2019-02-18T14:47:30.365Z,82.90
2019-02-18T14:49:58.779Z,83.80
2019-02-18T14:52:27.351Z,84.90
2019-02-18T14:54:55.900Z,85.60
2019-02-18T14:57:24.556Z,86.20
2019-02-18T14:59:52.957Z,86.40
2019-02-18T15:02:21.825Z,87.00
2019-02-18T15:04:50.224Z,87.60
2019-02-18T15:07:18.663Z,88.20
2019-02-18T15:09:47.132Z,88.60
2019-02-18T15:12:16.041Z,88.70
2019-02-18T15:14:44.450Z,88.90
2019-02-18T15:17:12.848Z,88.70
2019-02-18T15:19:41.312Z,88.60
2019-02-18T15:22:09.796Z,88.70
2019-02-18T15:24:38.177Z,88.60
2019-02-18T15:27:07.513Z,88.20
2019-02-18T15:29:35.909Z,88.30
2019-02-18T15:32:04.345Z,88.60
2019-02-18T15:34:32.834Z,88.90
2019-02-18T15:37:01.234Z,89.60
2019-02-18T15:39:29.633Z,90.30
2019-02-18T15:41:58.115Z,90.60
2019-02-18T15:44:26.851Z,91.00
2019-02-18T15:46:55.352Z,91.60
2019-02-18T15:49:23.782Z,91.50
2019-02-18T15:51:52.214Z,91.60
2019-02-18T15:54:20.601Z,92.00
2019-02-18T15:56:49.032Z,92.30
2019-02-18T15:59:17.516Z,92.50
2019-02-18T16:01:45.993Z,92.80
2019-02-18T16:04:14.499Z,93.10
2019-02-18T16:06:42.969Z,93.70
2019-02-18T16:09:11.398Z,94.00
2019-02-18T16:11:39.799Z,94.50
2019-02-18T16:14:08.200Z,94.80
2019-02-18T16:16:36.936Z,95.20
2019-02-18T16:19:05.352Z,95.50
2019-02-18T16:21:33.790Z,95.80
2019-02-18T16:24:02.259Z,96.10
2019-02-18T16:26:30.809Z,96.30
2019-02-18T16:28:59.373Z,96.30
2019-02-18T16:31:30.434Z,96.60
2019-02-18T16:33:57.936Z,96.40
2019-02-18T16:36:26.342Z,96.20
2019-02-18T16:38:55.045Z,96.50
2019-02-18T16:41:23.456Z,96.60
2019-02-18T16:43:51.853Z,96.70
2019-02-18T16:46:20.680Z,96.70
2019-02-18T16:48:49.407Z,96.70
2019-02-18T16:51:17.808Z,96.70
2019-02-18T16:53:46.216Z,96.70
2019-02-18T16:56:14.689Z,96.70
2019-02-18T16:58:43.108Z,96.70
2019-02-18T17:01:11.620Z,96.60
2019-02-18T17:03:40.129Z,96.60
2019-02-18T17:06:08.545Z,96.40
2019-02-18T17:08:36.970Z,96.40
2019-02-18T17:11:05.394Z,96.40
2019-02-18T17:13:33.800Z,96.40
2019-02-18T17:16:02.241Z,96.40
2019-02-18T17:18:31.048Z,96.30
2019-02-18T17:20:59.529Z,96.30
2019-02-18T17:23:27.958Z,96.30
2019-02-18T17:25:56.352Z,96.30
2019-02-18T17:28:24.750Z,96.30
2019-02-18T17:30:53.161Z,96.40
2019-02-18T17:33:21.568Z,96.40
2019-02-18T17:35:50.400Z,96.40
2019-02-18T17:38:18.813Z,96.40
2019-02-18T17:40:47.208Z,96.50
2019-02-18T17:43:16.619Z,96.60
2019-02-18T17:45:45.119Z,96.60
2019-02-18T17:48:13.624Z,96.60
2019-02-18T17:50:42.049Z,96.70
2019-02-18T17:53:10.453Z,96.70
2019-02-18T17:55:38.857Z,96.80
2019-02-18T17:58:07.320Z,96.80
2019-02-18T18:00:37.389Z,96.90
2019-02-18T18:03:06.068Z,96.90
2019-02-18T18:05:34.502Z,97.00
2019-02-18T18:08:03.884Z,97.00
2019-02-18T18:10:32.381Z,97.10
2019-02-18T18:13:00.808Z,97.20
2019-02-18T18:15:29.243Z,97.20
2019-02-18T18:17:57.645Z,97.30
2019-02-18T18:20:26.057Z,97.30
2019-02-18T18:22:54.882Z,97.30
2019-02-18T18:25:23.317Z,97.30
2019-02-18T18:27:51.788Z,97.30
2019-02-18T18:30:20.346Z,97.40
2019-02-18T18:32:48.749Z,97.30
2019-02-18T18:35:17.174Z,97.40
2019-02-18T18:37:45.572Z,97.30
2019-02-18T18:40:20.480Z,97.30
2019-02-18T18:42:48.868Z,97.30
2019-02-18T18:45:17.979Z,97.30
2019-02-18T18:47:46.451Z,97.30
2019-02-18T18:50:19.858Z,97.30
2019-02-18T18:52:48.263Z,97.30
2019-02-18T18:55:16.689Z,97.40
2019-02-18T18:57:45.077Z,97.40
2019-02-18T19:00:21.217Z,97.50
2019-02-18T19:02:49.618Z,97.50
2019-02-18T19:05:18.449Z,97.80
2019-02-18T19:07:46.837Z,97.40
2019-02-18T19:10:18.004Z,97.40
2019-02-18T19:12:45.792Z,97.40
2019-02-18T19:15:20.292Z,97.40
2019-02-18T19:17:48.876Z,97.40
2019-02-18T19:20:17.384Z,97.40
2019-02-18T19:22:45.787Z,97.30
2019-02-18T19:25:14.298Z,97.30
2019-02-18T19:27:42.697Z,97.30
2019-02-18T19:30:23.406Z,97.40
2019-02-18T19:32:51.867Z,97.40
2019-02-18T19:35:20.274Z,97.30
2019-02-18T19:40:23.207Z,97.10
2019-02-18T19:42:51.648Z,97.00
2019-02-18T19:45:22.125Z,96.90
2019-02-18T19:47:50.533Z,96.80
2019-02-18T19:50:18.940Z,96.80
2019-02-18T19:52:47.354Z,96.60
2019-02-18T19:55:15.758Z,96.40
2019-02-18T19:57:44.328Z,96.30
2019-02-18T20:00:17.784Z,96.10
2019-02-18T20:02:46.318Z,96.00
2019-02-18T20:05:14.696Z,96.00
2019-02-18T20:07:44.233Z,96.00
2019-02-18T20:10:13.320Z,95.90
2019-02-18T20:12:41.855Z,95.90
2019-02-18T20:15:13.225Z,95.70
2019-02-18T20:17:41.669Z,95.70
2019-02-18T20:20:12.964Z,95.60
2019-02-18T20:22:41.352Z,95.60
2019-02-18T20:25:10.036Z,95.50
2019-02-18T20:27:38.539Z,95.50
2019-02-18T20:30:10.347Z,95.40
2019-02-18T20:32:38.822Z,95.30
2019-02-18T20:35:08.586Z,95.40
2019-02-18T20:37:37.037Z,95.30
2019-02-18T20:40:07.085Z,95.30
2019-02-18T20:42:35.483Z,95.40
2019-02-18T20:45:04.831Z,95.30
2019-02-18T20:47:33.232Z,95.40
2019-02-18T20:50:01.662Z,95.50
2019-02-18T20:52:30.080Z,95.60
2019-02-18T20:54:58.807Z,95.60
2019-02-18T20:57:27.209Z,95.70
2019-02-18T20:59:55.918Z,95.80
2019-02-18T21:02:24.371Z,95.80
2019-02-18T21:04:52.775Z,95.70
2019-02-18T21:07:21.176Z,95.70
2019-02-18T21:09:49.573Z,95.70
2019-02-18T21:12:19.937Z,95.70
2019-02-18T21:14:48.068Z,95.80
2019-02-18T21:17:16.537Z,95.80
2019-02-18T21:19:44.956Z,95.80
2019-02-18T21:22:13.364Z,95.80
2019-02-18T21:24:41.772Z,95.80
2019-02-18T21:27:10.227Z,95.80
2019-02-18T21:29:38.927Z,95.80
2019-02-18T21:32:07.323Z,95.80
2019-02-18T21:34:35.823Z,95.90
2019-02-18T21:37:04.228Z,96.10
2019-02-18T21:39:32.679Z,96.00
2019-02-18T21:42:01.080Z,96.10
2019-02-18T21:44:29.548Z,96.10
2019-02-18T21:46:58.028Z,96.20
2019-02-18T21:49:27.992Z,96.10
2019-02-18T21:51:56.496Z,96.00
2019-02-18T21:54:24.899Z,95.90
2019-02-18T21:56:53.377Z,95.90
2019-02-18T21:59:21.781Z,95.90
2019-02-18T22:01:50.484Z,95.90
2019-02-18T22:04:18.932Z,95.80
2019-02-18T22:06:47.408Z,95.80
2019-02-18T22:09:15.808Z,95.80
2019-02-18T22:11:44.209Z,95.90
2019-02-18T22:14:12.673Z,95.90
2019-02-18T22:16:41.118Z,95.80
2019-02-18T22:19:09.817Z,95.80
2019-02-18T22:21:38.267Z,95.90
2019-02-18T22:24:06.670Z,95.80
2019-02-18T22:26:35.069Z,95.80
2019-02-18T22:29:03.593Z,95.80
2019-02-18T22:31:31.998Z,95.80
2019-02-18T22:34:00.396Z,95.60
2019-02-18T22:36:28.800Z,95.90
2019-02-18T22:38:57.255Z,95.90
2019-02-18T22:41:25.761Z,95.90
2019-02-18T22:43:54.242Z,95.90
2019-02-18T22:46:22.705Z,96.00
2019-02-18T22:48:51.115Z,96.00
2019-02-18T22:51:19.513Z,96.00
2019-02-18T22:53:47.912Z,96.00
2019-02-18T22:56:16.439Z,96.00
2019-02-18T22:58:44.849Z,96.10
2019-02-18T23:01:13.320Z,96.10
2019-02-18T23:03:41.724Z,96.10
2019-02-18T23:06:10.126Z,96.30
2019-02-18T23:08:38.932Z,96.30
2019-02-18T23:11:07.340Z,96.40
2019-02-18T23:13:35.805Z,96.40
2019-02-18T23:16:04.209Z,96.50
2019-02-18T23:18:32.611Z,96.50
2019-02-18T23:21:01.008Z,96.50
2019-02-18T23:23:29.487Z,96.60
2019-02-18T23:25:58.304Z,96.50
2019-02-18T23:28:26.709Z,96.40
2019-02-18T23:30:55.119Z,96.50
2019-02-18T23:33:23.522Z,96.40
2019-02-18T23:35:51.920Z,96.40
2019-02-18T23:38:20.332Z,96.30
2019-02-18T23:40:48.732Z,96.30
2019-02-18T23:43:17.652Z,96.10
2019-02-18T23:45:46.047Z,96.00
2019-02-18T23:48:14.448Z,96.10
2019-02-18T23:50:42.862Z,96.20
2019-02-18T23:55:40.415Z,96.30
2019-02-18T23:58:08.819Z,96.20
